Time;durP1;ratioP1;P1;durP2;ratioP2;P2;SDS_P1;SDS_P2;PMS_P1;PMS_P2;Temp;Humidity;BMP_temperature;BMP_pressure;BME280_temperature;BME280_humidity;BME280_pressure;Samples;Min_cycle;Max_cycle;Signal;HPM_P1;HPM_P2
2022/07/26 00:00:11;;;;;;;4.12;1.35;;;25.90;99.90;;;;;;1895083;74;21135;-81
2022/07/26 00:03:02;;;;;;;2.75;1.12;;;25.90;99.90;;;;;;1890416;75;21095;-82
2022/07/26 00:05:55;;;;;;;2.92;1.22;;;25.90;99.90;;;;;;1891285;75;21063;-82
2022/07/26 00:11:27;;;;;;;2.50;1.10;;;26.00;99.90;;;;;;1940699;72;22187;-82
2022/07/26 00:14:18;;;;;;;4.30;1.10;;;25.90;99.90;;;;;;1873251;75;21106;-82
2022/07/26 00:17:09;;;;;;;1.77;0.95;;;25.80;99.90;;;;;;1872164;75;21507;-83
2022/07/26 00:20:01;;;;;;;2.83;1.00;;;25.90;99.90;;;;;;1889453;75;21091;-83
2022/07/26 00:22:52;;;;;;;2.47;0.95;;;25.80;99.90;;;;;;1873128;75;21252;-83
2022/07/26 00:25:44;;;;;;;1.80;0.98;;;25.80;99.90;;;;;;1888722;75;21084;-82
2022/07/26 00:31:14;;;;;;;1.65;0.90;;;25.70;99.90;;;;;;1933328;72;22258;-81
2022/07/26 00:34:05;;;;;;;2.67;1.00;;;25.70;99.90;;;;;;1903465;75;21188;-83
2022/07/26 00:36:57;;;;;;;1.87;1.00;;;25.60;99.90;;;;;;1904703;75;21058;-83
2022/07/26 00:39:48;;;;;;;1.12;0.68;;;25.60;99.90;;;;;;1899597;75;21065;-82
2022/07/26 00:42:39;;;;;;;1.05;0.72;;;25.60;99.90;;;;;;1885888;74;21406;-82
2022/07/26 00:45:33;;;;;;;2.17;0.80;;;25.50;99.90;;;;;;1903554;74;21222;-82
2022/07/26 00:51:14;;;;;;;1.70;0.80;;;25.50;99.90;;;;;;1955558;72;22221;-82
2022/07/26 00:54:05;;;;;;;3.15;1.32;;;25.50;99.90;;;;;;1929280;73;21085;-85
2022/07/26 00:56:56;;;;;;;2.30;0.78;;;25.50;99.90;;;;;;1937765;73;21058;-82
2022/07/26 00:59:49;;;;;;;2.50;0.90;;;25.40;99.90;;;;;;1917700;73;21050;-82
2022/07/26 01:02:40;;;;;;;1.87;0.80;;;25.40;99.90;;;;;;1923608;73;21054;-81
2022/07/26 01:05:34;;;;;;;1.47;0.85;;;25.40;99.90;;;;;;1923067;73;21134;-82
2022/07/26 01:08:26;;;;;;;1.52;0.80;;;25.30;99.90;;;;;;1917689;73;21127;-82
2022/07/26 01:11:17;;;;;;;1.30;0.80;;;25.20;99.90;;;;;;1950938;73;21032;-82
2022/07/26 01:14:08;;;;;;;3.80;0.70;;;25.20;99.90;;;;;;1924035;73;21065;-82
2022/07/26 01:17:02;;;;;;;1.30;0.90;;;25.10;99.90;;;;;;1917559;73;21124;-82
2022/07/26 01:19:53;;;;;;;3.27;0.78;;;25.20;99.90;;;;;;1919885;73;21029;-82
2022/07/26 01:22:45;;;;;;;1.55;0.72;;;25.30;99.90;;;;;;1917718;73;21200;-82
2022/07/26 01:25:38;;;;;;;2.35;1.00;;;25.10;99.90;;;;;;1939144;73;21112;-82
2022/07/26 01:31:10;;;;;;;2.85;0.90;;;25.20;99.90;;;;;;1936063;72;22574;-83
2022/07/26 01:34:01;;;;;;;1.52;0.80;;;25.10;99.90;;;;;;1894792;75;21536;-83
2022/07/26 01:36:55;;;;;;;2.17;0.90;;;25.10;99.90;;;;;;1890313;75;21052;-83
2022/07/26 01:39:46;;;;;;;2.50;0.90;;;24.90;99.90;;;;;;1901631;75;21105;-83
2022/07/26 01:42:39;;;;;;;1.92;0.90;;;25.00;99.90;;;;;;1884819;75;21627;-83
2022/07/26 01:48:10;;;;;;;2.65;1.00;;;24.90;99.90;;;;;;1952015;72;22078;-83
2022/07/26 01:51:01;;;;;;;3.00;0.90;;;24.70;99.90;;;;;;1928869;73;21109;-84
2022/07/26 01:53:52;;;;;;;2.75;0.70;;;24.70;99.90;;;;;;1930372;73;21089;-84
2022/07/26 01:56:43;;;;;;;4.33;1.00;;;24.60;99.90;;;;;;1921260;73;21132;-82
2022/07/26 01:59:35;;;;;;;2.52;0.80;;;24.50;99.90;;;;;;1917647;75;21062;-83
2022/07/26 02:02:26;;;;;;;2.80;0.70;;;24.40;99.90;;;;;;1921391;73;21172;-83
2022/07/26 02:05:18;;;;;;;2.62;0.80;;;24.30;99.90;;;;;;1930184;73;21146;-83
2022/07/26 02:08:10;;;;;;;1.27;0.70;;;24.20;99.90;;;;;;1917761;73;21559;-83
2022/07/26 02:11:03;;;;;;;1.70;0.70;;;24.10;99.90;;;;;;1946932;73;21083;-82
2022/07/26 02:13:54;;;;;;;2.62;0.72;;;24.10;99.90;;;;;;1946076;73;21129;-83
2022/07/26 02:16:46;;;;;;;1.07;0.70;;;24.10;99.90;;;;;;1942105;73;21043;-83
2022/07/26 02:19:37;;;;;;;2.42;0.70;;;24.00;99.90;;;;;;1943578;73;21141;-82
2022/07/26 02:22:28;;;;;;;1.65;0.62;;;24.00;99.90;;;;;;1917584;75;21134;-84
2022/07/26 02:25:20;;;;;;;2.05;0.80;;;23.90;99.90;;;;;;1927237;74;21565;-83
2022/07/26 02:28:11;;;;;;;1.87;0.70;;;23.80;99.90;;;;;;1917746;73;21078;-83
2022/07/26 02:31:03;;;;;;;1.00;0.70;;;23.80;99.90;;;;;;1931537;73;21078;-82
2022/07/26 02:36:33;;;;;;;2.00;0.70;;;23.70;99.90;;;;;;1930969;72;22243;-83
2022/07/26 02:39:26;;;;;;;2.70;0.98;;;23.60;99.90;;;;;;1903507;75;21503;-83
2022/07/26 02:42:17;;;;;;;3.80;1.32;;;23.60;99.90;;;;;;1891624;75;21135;-83
2022/07/26 02:45:11;;;;;;;2.25;0.90;;;23.70;99.90;;;;;;1909177;74;21088;-83
2022/07/26 02:48:02;;;;;;;3.12;0.90;;;23.60;99.90;;;;;;1902730;75;21144;-84
2022/07/26 02:50:55;;;;;;;2.37;0.60;;;23.60;99.90;;;;;;1914582;75;21163;-83
2022/07/26 02:53:46;;;;;;;3.22;0.80;;;23.60;99.90;;;;;;1883211;75;21063;-83
2022/07/26 02:56:39;;;;;;;2.22;0.80;;;23.60;99.90;;;;;;1884850;75;21113;-83
2022/07/26 02:59:30;;;;;;;3.20;0.90;;;23.60;99.90;;;;;;1884782;75;21072;-84
2022/07/26 03:02:22;;;;;;;0.82;0.47;;;23.60;99.90;;;;;;1884364;75;21118;-86
2022/07/26 03:05:15;;;;;;;0.85;0.53;;;23.60;99.90;;;;;;1887966;75;21091;-84
2022/07/26 03:08:08;;;;;;;1.55;0.70;;;23.60;99.90;;;;;;1899101;75;21123;-84
2022/07/26 03:10:59;;;;;;;2.67;0.60;;;23.60;99.90;;;;;;1897329;73;21125;-83
2022/07/26 03:13:51;;;;;;;2.72;0.70;;;23.50;99.90;;;;;;1891441;75;21081;-83
2022/07/26 03:16:42;;;;;;;1.12;0.50;;;23.50;99.90;;;;;;1889970;75;21125;-83
2022/07/26 03:19:34;;;;;;;1.57;0.70;;;23.50;99.90;;;;;;1865387;76;21112;-84
2022/07/26 03:22:25;;;;;;;1.72;0.50;;;23.50;99.90;;;;;;1888937;75;21131;-83
2022/07/26 03:25:17;;;;;;;1.15;0.50;;;23.40;99.90;;;;;;1895172;75;21066;-83
2022/07/26 03:28:08;;;;;;;0.60;0.60;;;23.30;99.90;;;;;;1885735;75;21109;-84
2022/07/26 03:33:40;;;;;;;0.85;0.33;;;23.30;99.90;;;;;;1924485;72;22265;-83
2022/07/26 03:36:31;;;;;;;0.65;0.30;;;23.30;99.90;;;;;;1931973;74;21200;-82
2022/07/26 03:42:01;;;;;;;0.55;0.30;;;23.20;99.90;;;;;;1943853;72;22260;-83
2022/07/26 03:44:52;;;;;;;0.50;0.30;;;23.20;99.90;;;;;;1902153;73;21215;-83
2022/07/26 03:47:45;;;;;;;0.93;0.40;;;23.10;99.90;;;;;;1913014;75;21120;-85
2022/07/26 03:50:36;;;;;;;1.47;0.35;;;23.00;99.90;;;;;;1895936;75;21063;-83
2022/07/26 03:59:17;;;;;;;1.00;0.50;;;23.00;99.90;;;;;;1924896;73;21051;-84
2022/07/26 04:02:08;;;;;;;0.50;0.35;;;22.90;99.90;;;;;;1917695;75;21117;-84
2022/07/26 04:05:00;;;;;;;0.75;0.40;;;22.90;99.90;;;;;;1917692;73;21051;-83
2022/07/26 04:07:52;;;;;;;0.55;0.50;;;22.90;99.90;;;;;;1929016;73;21051;-83
2022/07/26 04:10:49;;;;;;;0.70;0.50;;;22.90;99.90;;;;;;1924482;73;21106;-84
2022/07/26 04:16:19;;;;;;;0.75;0.40;;;22.80;99.90;;;;;;1942134;72;22216;-84
2022/07/26 04:19:11;;;;;;;2.00;0.40;;;22.80;99.90;;;;;;1892008;75;21118;-83
2022/07/26 04:22:02;;;;;;;0.72;0.50;;;22.70;99.90;;;;;;1885071;75;21059;-82
2022/07/26 04:24:53;;;;;;;0.68;0.37;;;22.70;99.90;;;;;;1899081;75;21066;-84
2022/07/26 04:27:44;;;;;;;0.50;0.30;;;22.60;99.90;;;;;;1884880;75;21152;-83
2022/07/26 04:30:38;;;;;;;0.80;0.40;;;22.60;99.90;;;;;;1907865;75;21217;-84
2022/07/26 04:36:10;;;;;;;2.65;0.60;;;22.50;99.90;;;;;;1958237;72;22129;-83
2022/07/26 04:39:01;;;;;;;1.52;0.40;;;22.50;99.90;;;;;;1910031;73;21071;-84
2022/07/26 04:41:53;;;;;;;0.50;0.30;;;22.50;99.90;;;;;;1914853;74;21106;-85
2022/07/26 04:44:44;;;;;;;1.90;0.40;;;22.50;99.90;;;;;;1908610;74;21088;-94
2022/07/26 04:47:36;;;;;;;0.60;0.40;;;22.60;99.90;;;;;;1906644;74;21106;-87
2022/07/26 04:50:27;;;;;;;1.00;0.40;;;22.60;99.90;;;;;;1927187;74;21109;-84
2022/07/26 04:55:57;;;;;;;0.82;0.50;;;22.60;99.90;;;;;;1934849;72;22189;-83
2022/07/26 05:01:29;;;;;;;0.70;0.40;;;22.60;99.90;;;;;;1956747;72;22102;-85
2022/07/26 05:07:02;;;;;;;0.82;0.30;;;22.60;99.90;;;;;;1936982;72;22152;-85
2022/07/26 05:09:53;;;;;;;0.82;0.60;;;22.50;99.90;;;;;;1911713;75;21194;-84
2022/07/26 05:12:45;;;;;;;1.17;0.50;;;22.50;99.90;;;;;;1865837;75;21144;-85
2022/07/26 05:15:37;;;;;;;1.52;0.60;;;22.60;99.90;;;;;;1875171;76;21103;-84
2022/07/26 05:18:29;;;;;;;2.67;0.75;;;22.50;99.90;;;;;;1891369;74;21074;-84
2022/07/26 05:21:21;;;;;;;1.35;0.80;;;22.40;99.90;;;;;;1902682;74;21066;-84
2022/07/26 05:24:13;;;;;;;1.17;0.70;;;22.40;99.90;;;;;;1903958;74;21123;-84
2022/07/26 05:27:05;;;;;;;1.25;0.70;;;22.40;99.90;;;;;;1913442;74;21124;-85
2022/07/26 05:29:57;;;;;;;3.27;0.90;;;22.40;99.90;;;;;;1904549;75;21047;-83
2022/07/26 05:32:48;;;;;;;3.02;0.90;;;22.30;99.90;;;;;;1904732;75;21090;-83
2022/07/26 05:35:40;;;;;;;1.85;1.00;;;22.30;99.90;;;;;;1859374;75;21175;-82
2022/07/26 05:38:31;;;;;;;4.65;1.30;;;22.20;99.90;;;;;;1862368;75;21182;-83
2022/07/26 05:41:23;;;;;;;1.95;1.17;;;22.10;99.90;;;;;;1900567;75;21102;-82
2022/07/26 05:46:52;;;;;;;3.42;1.22;;;22.20;99.90;;;;;;1943641;72;22287;-81
2022/07/26 05:49:44;;;;;;;2.35;1.40;;;22.20;99.90;;;;;;1890465;75;21114;-81
2022/07/26 05:52:35;;;;;;;2.00;1.17;;;22.30;99.90;;;;;;1899541;75;21470;-75
2022/07/26 05:58:07;;;;;;;3.45;1.22;;;22.20;99.90;;;;;;1938951;72;22275;-76
2022/07/26 06:00:59;;;;;;;1.87;1.02;;;22.20;99.90;;;;;;1917251;75;21110;-76
2022/07/26 06:03:50;;;;;;;4.08;1.40;;;22.20;99.90;;;;;;1912092;75;21117;-77
2022/07/26 06:06:41;;;;;;;4.20;1.17;;;22.30;99.90;;;;;;1899991;75;21153;-77
2022/07/26 06:09:32;;;;;;;4.47;1.35;;;22.20;99.90;;;;;;1885925;75;21102;-77
2022/07/26 06:12:24;;;;;;;3.50;1.50;;;22.10;99.90;;;;;;1889015;75;21058;-77
2022/07/26 06:15:15;;;;;;;4.35;1.40;;;22.10;99.90;;;;;;1908063;75;21113;-77
2022/07/26 06:18:06;;;;;;;3.12;1.22;;;22.20;99.90;;;;;;1902489;75;21091;-77
2022/07/26 06:20:57;;;;;;;3.17;1.50;;;22.30;99.90;;;;;;1897257;75;21055;-78
2022/07/26 06:26:29;;;;;;;2.65;1.35;;;22.40;99.90;;;;;;1944766;72;22179;-78
2022/07/26 06:29:20;;;;;;;2.95;1.60;;;22.40;99.90;;;;;;1894301;75;21617;-78
2022/07/26 06:32:13;;;;;;;3.40;1.60;;;22.30;99.90;;;;;;1888450;75;21132;-78
2022/07/26 06:35:06;;;;;;;3.20;1.52;;;22.30;99.90;;;;;;1904841;75;21085;-77
2022/07/26 06:37:59;;;;;;;4.05;1.60;;;22.30;99.90;;;;;;1910563;75;21056;-77
2022/07/26 06:40:51;;;;;;;4.47;1.50;;;22.40;99.90;;;;;;1904615;75;21159;-78
2022/07/26 06:46:20;;;;;;;3.22;1.40;;;22.20;99.90;;;;;;1926839;72;22221;-77
2022/07/26 06:49:12;;;;;;;3.30;1.52;;;22.20;99.90;;;;;;1906622;75;21063;-77
2022/07/26 06:52:04;;;;;;;8.33;1.70;;;22.20;99.90;;;;;;1889754;75;21136;-77
2022/07/26 06:57:34;;;;;;;3.85;1.50;;;22.20;99.90;;;;;;1971732;72;22653;-78
2022/07/26 07:03:07;;;;;;;4.22;1.55;;;22.30;99.90;;;;;;1938527;72;22300;-76
2022/07/26 07:05:58;;;;;;;5.12;1.55;;;22.30;99.90;;;;;;1892614;75;21623;-77
2022/07/26 07:08:50;;;;;;;5.72;1.65;;;22.30;99.90;;;;;;1894435;75;21127;-77
2022/07/26 07:11:41;;;;;;;2.35;1.40;;;22.30;99.90;;;;;;1893231;75;21170;-76
2022/07/26 07:14:34;;;;;;;3.52;1.72;;;22.30;99.90;;;;;;1900152;75;21052;-77
2022/07/26 07:17:25;;;;;;;3.42;1.55;;;22.30;99.90;;;;;;1899701;75;21051;-77
2022/07/26 07:20:17;;;;;;;3.60;1.72;;;22.20;99.90;;;;;;1909718;75;21058;-79
2022/07/26 07:23:08;;;;;;;3.62;1.80;;;22.30;99.90;;;;;;1884507;75;21529;-80
2022/07/26 07:25:59;;;;;;;3.52;1.62;;;22.30;99.90;;;;;;1890706;75;21101;-80
2022/07/26 07:28:51;;;;;;;2.58;1.50;;;22.20;99.90;;;;;;1891636;75;21125;-79
2022/07/26 07:31:46;;;;;;;2.55;1.37;;;22.20;99.90;;;;;;1906501;75;21059;-80
2022/07/26 07:34:39;;;;;;;3.33;1.37;;;22.20;99.90;;;;;;1887750;75;21118;-80
2022/07/26 07:37:32;;;;;;;2.35;1.35;;;22.40;99.90;;;;;;1894373;75;21051;-79
2022/07/26 07:40:25;;;;;;;3.10;1.22;;;22.40;99.90;;;;;;1898486;75;21088;-79
2022/07/26 07:43:18;;;;;;;2.90;1.12;;;22.50;99.90;;;;;;1907154;75;21062;-78
2022/07/26 07:46:11;;;;;;;4.47;1.57;;;22.60;99.90;;;;;;1884707;75;21615;-79
2022/07/26 07:49:03;;;;;;;5.30;1.60;;;22.50;99.90;;;;;;1896939;75;21052;-78
2022/07/26 07:51:55;;;;;;;3.98;1.70;;;22.60;99.90;;;;;;1886382;75;21059;-79
2022/07/26 07:54:46;;;;;;;4.47;1.52;;;22.50;99.90;;;;;;1903745;75;21112;-80
2022/07/26 07:57:38;;;;;;;3.83;1.25;;;22.40;99.90;;;;;;1889176;75;21133;-80
2022/07/26 08:00:30;;;;;;;3.15;1.40;;;22.40;99.90;;;;;;1888987;75;21692;-78
2022/07/26 08:03:22;;;;;;;3.30;1.67;;;22.50;99.90;;;;;;1890108;75;21502;-79
2022/07/26 08:06:15;;;;;;;2.75;1.45;;;22.50;99.90;;;;;;1872788;75;21164;-79
2022/07/26 08:09:06;;;;;;;3.65;1.20;;;22.70;99.90;;;;;;1905225;75;21669;-79
2022/07/26 08:11:59;;;;;;;5.42;1.50;;;22.70;99.90;;;;;;1884688;75;21149;-79
2022/07/26 08:17:29;;;;;;;3.77;1.52;;;22.70;99.90;;;;;;1947624;72;22313;-79
2022/07/26 08:20:22;;;;;;;2.90;1.52;;;22.70;99.90;;;;;;1888320;75;21067;-79
2022/07/26 08:23:15;;;;;;;2.77;1.15;;;22.90;99.90;;;;;;1884685;75;21122;-79
2022/07/26 08:28:46;;;;;;;3.42;1.40;;;23.10;99.90;;;;;;1932009;72;22155;-77
2022/07/26 08:31:38;;;;;;;2.65;1.35;;;23.20;99.90;;;;;;1906999;75;21153;-79
2022/07/26 08:34:30;;;;;;;3.10;1.62;;;23.30;99.90;;;;;;1905252;75;21168;-78
2022/07/26 08:37:21;;;;;;;3.02;1.27;;;23.30;99.90;;;;;;1908640;74;21059;-79
2022/07/26 08:40:13;;;;;;;3.02;1.40;;;23.40;99.90;;;;;;1915114;74;21180;-79
2022/07/26 08:43:05;;;;;;;2.42;1.40;;;23.40;99.90;;;;;;1898848;74;21138;-79
2022/07/26 08:48:41;;;;;;;3.02;1.47;;;23.60;99.90;;;;;;1948403;72;22181;-77
2022/07/26 08:51:32;;;;;;;3.10;1.22;;;23.60;99.90;;;;;;1935104;73;21105;-78
2022/07/26 08:54:23;;;;;;;3.60;1.32;;;23.70;99.90;;;;;;1938592;73;21144;-81
2022/07/26 08:57:16;;;;;;;4.87;1.40;;;23.70;99.90;;;;;;1956614;73;21043;-79
2022/07/26 09:00:18;;;;;;;2.30;1.30;;;23.80;99.90;;;;;;1914190;73;21048;-78
2022/07/26 09:03:12;;;;;;;4.78;1.40;;;23.80;99.90;;;;;;1942462;73;21116;-78
2022/07/26 09:06:16;;;;;;;3.75;1.00;;;23.80;99.90;;;;;;1941640;73;21156;-79
2022/07/26 09:11:51;;;;;;;3.10;1.15;;;23.80;99.90;;;;;;1939430;72;22193;-79
2022/07/26 09:14:45;;;;;;;2.67;1.30;;;23.80;99.90;;;;;;1892237;75;21174;-78
2022/07/26 09:17:43;;;;;;;2.80;1.42;;;23.80;99.90;;;;;;1881890;75;21125;-78
2022/07/26 09:20:34;;;;;;;2.98;1.17;;;23.80;99.90;;;;;;1885179;75;21133;-79
2022/07/26 09:26:06;;;;;;;2.95;1.20;;;23.90;99.90;;;;;;1953898;72;22153;-78
2022/07/26 09:31:44;;;;;;;2.20;1.10;;;24.00;99.90;;;;;;1952749;72;22180;-79
2022/07/26 09:34:35;;;;;;;3.17;0.98;;;23.80;99.90;;;;;;1919362;74;21099;-78
2022/07/26 09:37:36;;;;;;;1.62;1.00;;;23.90;99.90;;;;;;1902125;75;21048;-79
2022/07/26 09:41:08;;;;;;;2.12;1.30;;;24.00;99.90;;;;;;1899138;75;21575;-79
2022/07/26 09:47:54;;;;;;;1.82;1.15;;;24.10;99.90;;;;;;1908396;75;21067;-78
2022/07/26 09:50:49;;;;;;;4.58;1.12;;;24.20;99.90;;;;;;1916470;75;21176;-77
2022/07/26 09:53:42;;;;;;;2.20;1.10;;;24.30;99.90;;;;;;1902430;75;21056;-77
2022/07/26 09:56:48;;;;;;;5.47;1.30;;;24.40;99.90;;;;;;1897735;75;21131;-77
2022/07/26 09:59:39;;;;;;;2.65;1.17;;;24.40;99.90;;;;;;1884993;76;21100;-77
2022/07/26 10:02:31;;;;;;;2.35;0.98;;;24.50;99.90;;;;;;1906759;75;21570;-77
2022/07/26 10:05:23;;;;;;;4.55;1.10;;;24.70;99.90;;;;;;1906517;75;21161;-77
2022/07/26 10:08:14;;;;;;;4.00;1.20;;;24.70;99.90;;;;;;1902453;75;21059;-77
2022/07/26 10:11:08;;;;;;;1.85;1.20;;;24.70;99.90;;;;;;1896666;75;21119;-78
2022/07/26 10:14:00;;;;;;;3.00;1.10;;;24.80;99.90;;;;;;1888081;75;21179;-77
2022/07/26 10:16:51;;;;;;;3.15;1.30;;;24.80;99.90;;;;;;1906645;75;21150;-77
2022/07/26 10:19:43;;;;;;;3.65;1.30;;;24.80;99.90;;;;;;1903229;75;21127;-76
2022/07/26 10:22:43;;;;;;;2.80;1.10;;;24.90;99.90;;;;;;1898388;75;21102;-77
2022/07/26 10:28:43;;;;;;;2.90;1.15;;;24.90;99.90;;;;;;1935894;72;22222;-77
2022/07/26 10:31:34;;;;;;;3.75;1.77;;;24.90;99.90;;;;;;1876222;75;21067;-79
2022/07/26 10:34:34;;;;;;;4.17;1.40;;;24.90;99.90;;;;;;1885572;75;21146;-78
2022/07/26 10:37:28;;;;;;;2.87;1.05;;;24.90;99.90;;;;;;1889043;75;21079;-79
2022/07/26 10:40:28;;;;;;;3.37;1.10;;;25.20;99.90;;;;;;1884452;75;21081;-78
2022/07/26 10:46:27;;;;;;;3.25;1.10;;;25.20;99.90;;;;;;1953975;72;22175;-78
2022/07/26 10:49:20;;;;;;;3.65;1.10;;;25.10;99.90;;;;;;1906840;75;21634;-78
2022/07/26 10:52:21;;;;;;;5.80;1.62;;;25.20;99.90;;;;;;1902773;75;21117;-79
2022/07/26 10:55:12;;;;;;;6.90;1.75;;;25.30;99.90;;;;;;1884763;76;21502;-77
2022/07/26 10:58:05;;;;;;;2.65;1.12;;;25.30;99.90;;;;;;1906763;75;21059;-77
2022/07/26 11:01:01;;;;;;;2.47;1.05;;;25.40;99.90;;;;;;1889749;75;21667;-77
2022/07/26 11:03:53;;;;;;;4.58;1.12;;;25.50;99.90;;;;;;1895563;75;21104;-77
2022/07/26 11:06:45;;;;;;;5.83;1.20;;;25.50;99.90;;;;;;1899388;75;21125;-77
2022/07/26 11:09:37;;;;;;;1.92;1.00;;;25.70;99.90;;;;;;1897048;75;21128;-78
2022/07/26 11:12:28;;;;;;;2.05;0.88;;;25.60;99.90;;;;;;1887610;75;21509;-77
2022/07/26 11:15:21;;;;;;;3.98;1.32;;;25.50;99.90;;;;;;1906686;75;21094;-77
2022/07/26 11:18:22;;;;;;;2.40;0.85;;;25.60;99.90;;;;;;1904712;75;21126;-78
2022/07/26 11:21:15;;;;;;;4.45;1.20;;;25.50;99.90;;;;;;1900492;75;21118;-77
2022/07/26 11:24:08;;;;;;;4.53;1.25;;;25.60;99.90;;;;;;1897110;75;21059;-76
2022/07/26 11:27:05;;;;;;;3.12;1.15;;;25.90;99.90;;;;;;1887504;75;21199;-77
2022/07/26 11:29:58;;;;;;;1.15;0.80;;;26.00;99.90;;;;;;1887562;75;21129;-77
2022/07/26 11:32:54;;;;;;;4.70;1.52;;;26.00;99.90;;;;;;1917570;75;21054;-77
2022/07/26 11:35:52;;;;;;;2.42;1.17;;;25.90;99.90;;;;;;1900673;75;21105;-77
2022/07/26 11:38:52;;;;;;;2.58;1.20;;;26.00;99.90;;;;;;1897172;75;21113;-77
2022/07/26 11:41:44;;;;;;;5.83;1.20;;;26.10;99.90;;;;;;1886537;75;21052;-78
2022/07/26 11:44:36;;;;;;;6.03;1.20;;;26.10;99.90;;;;;;1885363;75;21134;-77
2022/07/26 11:47:27;;;;;;;3.22;1.17;;;26.20;99.90;;;;;;1914909;74;21139;-78
2022/07/26 11:50:20;;;;;;;3.35;1.40;;;26.10;99.90;;;;;;1909358;74;21058;-77
2022/07/26 11:53:22;;;;;;;1.90;1.10;;;26.10;99.90;;;;;;1904933;74;21128;-78
2022/07/26 11:56:16;;;;;;;2.12;1.10;;;26.30;99.90;;;;;;1904539;74;21102;-77
2022/07/26 11:59:10;;;;;;;3.40;1.30;;;26.30;99.90;;;;;;1904020;74;21145;-78
2022/07/26 12:02:02;;;;;;;3.83;1.40;;;26.40;99.90;;;;;;1906880;74;21181;-78
2022/07/26 12:05:12;;;;;;;6.87;1.30;;;26.40;99.90;;;;;;1908678;74;21510;-78
2022/07/26 12:08:06;;;;;;;2.77;1.20;;;26.50;99.90;;;;;;1907371;74;21530;-78
2022/07/26 12:10:58;;;;;;;4.08;0.95;;;26.50;99.90;;;;;;1904195;74;21050;-78
2022/07/26 12:13:53;;;;;;;6.60;1.70;;;26.50;99.90;;;;;;1904128;74;21116;-80
2022/07/26 12:16:47;;;;;;;4.40;1.20;;;26.70;99.90;;;;;;1905447;74;21192;-77
2022/07/26 12:19:39;;;;;;;2.42;0.90;;;26.70;99.90;;;;;;1909617;74;21059;-80
2022/07/26 12:22:31;;;;;;;5.00;1.17;;;26.50;99.90;;;;;;1904240;74;21187;-78
2022/07/26 12:25:27;;;;;;;3.72;1.20;;;26.60;99.90;;;;;;1898754;74;21091;-79
2022/07/26 12:28:38;;;;;;;3.17;1.27;;;26.60;99.90;;;;;;1917295;74;21125;-79
2022/07/26 12:31:32;;;;;;;1.77;1.00;;;26.70;99.90;;;;;;1904578;74;21131;-78
2022/07/26 12:34:24;;;;;;;1.65;0.82;;;26.70;99.90;;;;;;1906404;74;21514;-77
2022/07/26 12:37:18;;;;;;;4.95;1.00;;;26.70;99.90;;;;;;1893764;76;21505;-78
2022/07/26 12:40:14;;;;;;;4.53;1.37;;;26.80;99.90;;;;;;1915869;74;21593;-78
2022/07/26 12:43:06;;;;;;;4.22;1.32;;;26.90;99.90;;;;;;1915759;74;21118;-77
2022/07/26 12:45:57;;;;;;;5.58;1.10;;;27.00;99.90;;;;;;1916479;74;21078;-78
2022/07/26 12:48:49;;;;;;;3.77;1.27;;;27.10;99.90;;;;;;1926506;74;21545;-78
2022/07/26 12:51:41;;;;;;;3.40;1.10;;;27.10;99.90;;;;;;1906503;74;21047;-78
2022/07/26 12:54:36;;;;;;;2.22;1.30;;;27.20;99.90;;;;;;1904194;74;21063;-78
2022/07/26 12:57:29;;;;;;;3.55;1.25;;;27.40;99.90;;;;;;1904358;74;21174;-78
2022/07/26 13:00:22;;;;;;;5.37;1.15;;;27.50;99.90;;;;;;1905856;74;21168;-79
2022/07/26 13:03:20;;;;;;;2.37;1.10;;;27.60;99.90;;;;;;1908909;74;21102;-78
2022/07/26 13:06:12;;;;;;;8.85;1.50;;;27.70;99.90;;;;;;1905193;74;21563;-79
2022/07/26 13:09:06;;;;;;;2.85;1.30;;;27.90;99.90;;;;;;1897490;74;21067;-78
2022/07/26 13:12:00;;;;;;;1.35;1.20;;;27.70;99.90;;;;;;1876620;76;21121;-78
2022/07/26 13:14:53;;;;;;;3.08;1.10;;;27.80;99.90;;;;;;1912979;74;21099;-78
2022/07/26 13:17:49;;;;;;;3.15;1.20;;;27.90;99.90;;;;;;1893784;74;21555;-78
2022/07/26 13:20:41;;;;;;;2.08;1.02;;;27.90;99.90;;;;;;1903380;74;21108;-79
2022/07/26 13:23:33;;;;;;;1.90;1.10;;;27.80;99.90;;;;;;1899899;74;21165;-78
2022/07/26 13:26:28;;;;;;;5.22;1.20;;;28.00;99.90;;;;;;1915831;74;21105;-80
2022/07/26 13:29:28;;;;;;;2.27;1.15;;;28.00;99.90;;;;;;1893714;76;21140;-79
2022/07/26 13:32:20;;;;;;;4.37;1.37;;;28.00;99.90;;;;;;1907611;74;21125;-80
2022/07/26 13:35:15;;;;;;;3.05;1.15;;;28.00;99.90;;;;;;1904306;74;21580;-80
2022/07/26 13:38:08;;;;;;;2.00;1.20;;;28.10;99.90;;;;;;1922289;74;21498;-78
2022/07/26 13:41:01;;;;;;;2.50;1.17;;;28.20;99.90;;;;;;1877059;76;21540;-79
2022/07/26 13:43:58;;;;;;;3.72;1.20;;;28.10;99.90;;;;;;1910293;74;21108;-80
2022/07/26 13:46:50;;;;;;;3.45;1.30;;;28.30;99.90;;;;;;1905457;74;21126;-78
2022/07/26 13:49:46;;;;;;;5.15;1.67;;;28.30;99.90;;;;;;1904161;74;21038;-78
2022/07/26 13:52:41;;;;;;;3.90;1.17;;;28.50;99.90;;;;;;1904403;74;21138;-78
2022/07/26 13:55:36;;;;;;;2.37;1.12;;;28.50;99.90;;;;;;1909541;74;21108;-79
2022/07/26 13:58:31;;;;;;;2.05;1.30;;;28.70;99.90;;;;;;1909244;74;21141;-80
2022/07/26 14:01:25;;;;;;;3.37;1.15;;;29.00;99.90;;;;;;1915186;74;21159;-79
2022/07/26 14:04:20;;;;;;;2.15;1.00;;;29.10;99.90;;;;;;1915881;74;21122;-78
2022/07/26 14:07:13;;;;;;;5.62;1.40;;;29.10;99.90;;;;;;1917780;74;21211;-78
2022/07/26 14:10:07;;;;;;;3.15;1.20;;;29.60;99.90;;;;;;1890936;75;21187;-79
2022/07/26 14:13:00;;;;;;;5.20;1.20;;;29.70;99.90;;;;;;1893675;76;21553;-78
2022/07/26 14:15:54;;;;;;;3.52;1.45;;;29.90;99.90;;;;;;1915600;74;21067;-78
2022/07/26 14:18:56;;;;;;;4.10;1.30;;;29.90;99.90;;;;;;1915389;74;21605;-78
2022/07/26 14:21:50;;;;;;;2.22;1.40;;;30.00;99.90;;;;;;1895682;74;21102;-78
2022/07/26 14:24:43;;;;;;;4.03;1.35;;;29.80;99.90;;;;;;1907152;74;21188;-79
2022/07/26 14:27:37;;;;;;;2.25;1.30;;;29.70;99.90;;;;;;1908069;74;21136;-78
2022/07/26 14:30:31;;;;;;;2.12;1.00;;;29.80;99.90;;;;;;1904513;74;21051;-78
2022/07/26 14:33:27;;;;;;;2.50;1.17;;;30.00;99.90;;;;;;1904296;74;21102;-78
2022/07/26 14:36:23;;;;;;;1.72;1.05;;;29.90;99.90;;;;;;1924484;74;21050;-78
2022/07/26 14:39:17;;;;;;;2.97;1.30;;;30.10;99.90;;;;;;1877089;76;21074;-78
2022/07/26 14:42:15;;;;;;;1.90;1.20;;;30.50;99.90;;;;;;1902316;74;21103;-77
2022/07/26 14:45:18;;;;;;;3.42;1.27;;;30.60;99.50;;;;;;1915287;74;21189;-78
2022/07/26 14:48:14;;;;;;;4.58;1.37;;;30.90;98.80;;;;;;1893634;75;21067;-78
2022/07/26 14:51:18;;;;;;;3.22;1.67;;;30.70;98.90;;;;;;1897651;75;21154;-77
2022/07/26 14:54:12;;;;;;;2.15;1.15;;;31.10;98.40;;;;;;1886328;75;21114;-78
2022/07/26 14:57:05;;;;;;;3.25;1.20;;;31.40;98.10;;;;;;1916866;75;21064;-77
2022/07/26 14:59:58;;;;;;;2.98;1.40;;;31.50;97.20;;;;;;1901445;75;21059;-78
2022/07/26 15:02:56;;;;;;;2.70;1.55;;;31.60;96.70;;;;;;1906394;75;21228;-78
2022/07/26 15:05:49;;;;;;;3.10;1.30;;;31.40;96.40;;;;;;1906076;75;21179;-77
2022/07/26 15:08:42;;;;;;;4.97;1.12;;;31.30;96.60;;;;;;1905791;75;21213;-77
2022/07/26 15:11:35;;;;;;;2.00;1.30;;;31.40;96.20;;;;;;1902507;75;21092;-78
2022/07/26 15:14:27;;;;;;;1.70;1.20;;;31.40;96.10;;;;;;1884956;75;21052;-78
2022/07/26 15:17:23;;;;;;;1.55;1.10;;;31.40;95.80;;;;;;1882839;75;21055;-77
2022/07/26 15:20:16;;;;;;;2.20;1.17;;;31.30;95.50;;;;;;1882648;75;21103;-78
2022/07/26 15:23:13;;;;;;;2.58;1.37;;;31.50;95.20;;;;;;1883843;75;21157;-78
2022/07/26 15:26:07;;;;;;;3.58;1.12;;;31.60;94.70;;;;;;1888911;75;21094;-78
2022/07/26 15:29:00;;;;;;;2.37;1.20;;;31.40;95.10;;;;;;1884250;75;21113;-78
2022/07/26 15:31:52;;;;;;;2.72;1.22;;;31.70;94.80;;;;;;1875504;75;21047;-78
2022/07/26 15:34:47;;;;;;;1.87;1.00;;;32.00;94.10;;;;;;1906247;75;21589;-78
2022/07/26 15:37:42;;;;;;;1.85;1.10;;;32.00;93.50;;;;;;1904344;75;21047;-77
2022/07/26 15:40:35;;;;;;;4.37;1.20;;;32.20;93.30;;;;;;1888958;75;21058;-79
2022/07/26 15:43:28;;;;;;;2.37;1.10;;;31.90;92.80;;;;;;1883010;75;21144;-77
2022/07/26 15:46:37;;;;;;;1.47;1.05;;;32.10;93.10;;;;;;1894562;75;21063;-77
2022/07/26 15:49:30;;;;;;;1.85;1.17;;;31.70;93.00;;;;;;1844010;77;21040;-78
2022/07/26 15:52:21;;;;;;;1.72;1.20;;;31.60;93.40;;;;;;1829019;77;21146;-78
2022/07/26 15:55:14;;;;;;;6.00;1.30;;;32.40;92.10;;;;;;1756412;82;21100;-77
2022/07/26 15:58:05;;;;;;;3.27;1.10;;;32.50;91.80;;;;;;1751065;82;21103;-78
2022/07/26 16:00:57;;;;;;;1.47;1.00;;;32.60;91.60;;;;;;1756588;82;21088;-78
2022/07/26 16:03:49;;;;;;;2.45;1.00;;;32.20;91.30;;;;;;1847140;77;21558;-77
2022/07/26 16:06:40;;;;;;;1.32;1.00;;;32.20;91.40;;;;;;1845994;77;21114;-78
2022/07/26 16:09:32;;;;;;;2.55;1.05;;;32.50;90.70;;;;;;1850282;77;21511;-78
2022/07/26 16:12:23;;;;;;;2.50;0.90;;;32.00;91.10;;;;;;1843862;77;21154;-78
2022/07/26 16:15:15;;;;;;;3.75;1.70;;;32.20;90.90;;;;;;1843722;77;21194;-78
2022/07/26 16:20:47;;;;;;;5.05;1.30;;;32.90;89.60;;;;;;1945398;72;22900;-78
2022/07/26 16:23:39;;;;;;;1.35;0.90;;;33.00;88.10;;;;;;1891305;75;21102;-79
2022/07/26 16:26:31;;;;;;;2.67;1.00;;;32.70;87.60;;;;;;1895364;75;21595;-79